sensor_id;sensor_type;location;lat;lon;timestamp;pressure;altitude;pressure_sealevel;temperature;humidity
65897;BME280;52677;50.898;10.854;2024-01-07T00:00:41;98180.88;;;-0.12;100.00
65897;BME280;52677;50.898;10.854;2024-01-07T00:02:42;98181.81;;;-0.17;100.00
65897;BME280;52677;50.898;10.854;2024-01-07T00:04:42;98180.38;;;-0.23;100.00
65897;BME280;52677;50.898;10.854;2024-01-07T00:06:42;98189.47;;;-0.28;100.00
65897;BME280;52677;50.898;10.854;2024-01-07T00:08:43;98181.16;;;-0.31;100.00
65897;BME280;52677;50.898;10.854;2024-01-07T00:10:43;98189.47;;;-0.28;100.00
65897;BME280;52677;50.898;10.854;2024-01-07T00:12:43;98177.78;;;-0.28;100.00
65897;BME280;52677;50.898;10.854;2024-01-07T00:14:44;98191.84;;;-0.26;100.00
65897;BME280;52677;50.898;10.854;2024-01-07T00:16:44;98188.81;;;-0.33;100.00
65897;BME280;52677;50.898;10.854;2024-01-07T00:18:44;98197.13;;;-0.30;100.00
65897;BME280;52677;50.898;10.854;2024-01-07T00:20:45;98200.16;;;-0.31;100.00
65897;BME280;52677;50.898;10.854;2024-01-07T00:22:45;98195.84;;;-0.32;100.00
65897;BME280;52677;50.898;10.854;2024-01-07T00:24:45;98202.69;;;-0.35;100.00
65897;BME280;52677;50.898;10.854;2024-01-07T00:26:45;98200.63;;;-0.38;100.00
65897;BME280;52677;50.898;10.854;2024-01-07T00:28:46;98209.56;;;-0.37;100.00
65897;BME280;52677;50.898;10.854;2024-01-07T00:30:46;98210.06;;;-0.35;100.00
65897;BME280;52677;50.898;10.854;2024-01-07T00:32:46;98219.16;;;-0.40;100.00
65897;BME280;52677;50.898;10.854;2024-01-07T00:34:47;98215.81;;;-0.37;100.00
65897;BME280;52677;50.898;10.854;2024-01-07T00:36:47;98216.59;;;-0.36;100.00
65897;BME280;52677;50.898;10.854;2024-01-07T00:38:47;98209.09;;;-0.39;100.00
65897;BME280;52677;50.898;10.854;2024-01-07T00:40:48;98217.25;;;-0.39;100.00
65897;BME280;52677;50.898;10.854;2024-01-07T00:42:48;98219.66;;;-0.38;100.00
65897;BME280;52677;50.898;10.854;2024-01-07T00:44:49;98220.28;;;-0.41;100.00
65897;BME280;52677;50.898;10.854;2024-01-07T00:46:49;98225.19;;;-0.43;100.00
65897;BME280;52677;50.898;10.854;2024-01-07T00:48:49;98230.34;;;-0.41;100.00
65897;BME280;52677;50.898;10.854;2024-01-07T00:50:50;98224.41;;;-0.43;100.00
65897;BME280;52677;50.898;10.854;2024-01-07T00:52:50;98233.34;;;-0.43;100.00
65897;BME280;52677;50.898;10.854;2024-01-07T00:54:51;98227.13;;;-0.43;100.00
65897;BME280;52677;50.898;10.854;2024-01-07T00:56:52;98236.53;;;-0.49;100.00
65897;BME280;52677;50.898;10.854;2024-01-07T00:58:52;98232.34;;;-0.55;100.00
65897;BME280;52677;50.898;10.854;2024-01-07T01:00:52;98234.75;;;-0.54;100.00
65897;BME280;52677;50.898;10.854;2024-01-07T01:02:54;98234.06;;;-0.60;100.00
65897;BME280;52677;50.898;10.854;2024-01-07T01:04:54;98234.69;;;-0.63;100.00
65897;BME280;52677;50.898;10.854;2024-01-07T01:06:54;98240.75;;;-0.66;100.00
65897;BME280;52677;50.898;10.854;2024-01-07T01:08:55;98240.31;;;-0.59;100.00
65897;BME280;52677;50.898;10.854;2024-01-07T01:10:55;98241.78;;;-0.53;100.00
65897;BME280;52677;50.898;10.854;2024-01-07T01:12:55;98247.66;;;-0.60;100.00
65897;BME280;52677;50.898;10.854;2024-01-07T01:14:56;98250.06;;;-0.58;100.00
65897;BME280;52677;50.898;10.854;2024-01-07T01:16:56;98245.09;;;-0.65;100.00
65897;BME280;52677;50.898;10.854;2024-01-07T01:18:56;98255.16;;;-0.65;100.00
65897;BME280;52677;50.898;10.854;2024-01-07T01:20:57;98252.66;;;-0.75;100.00
65897;BME280;52677;50.898;10.854;2024-01-07T01:22:57;98261.81;;;-0.71;100.00
65897;BME280;52677;50.898;10.854;2024-01-07T01:24:57;98263.03;;;-0.77;100.00
65897;BME280;52677;50.898;10.854;2024-01-07T01:26:58;98257.44;;;-0.81;100.00
65897;BME280;52677;50.898;10.854;2024-01-07T01:28:58;98256.00;;;-0.78;100.00
65897;BME280;52677;50.898;10.854;2024-01-07T01:30:58;98265.28;;;-0.79;100.00
65897;BME280;52677;50.898;10.854;2024-01-07T01:32:58;98263.97;;;-0.82;100.00
65897;BME280;52677;50.898;10.854;2024-01-07T01:34:59;98262.06;;;-0.81;100.00
65897;BME280;52677;50.898;10.854;2024-01-07T01:36:59;98273.41;;;-0.79;100.00
65897;BME280;52677;50.898;10.854;2024-01-07T01:38:59;98272.13;;;-0.82;100.00
65897;BME280;52677;50.898;10.854;2024-01-07T01:40:59;98279.75;;;-0.84;100.00
65897;BME280;52677;50.898;10.854;2024-01-07T01:43:00;98273.66;;;-0.90;100.00
65897;BME280;52677;50.898;10.854;2024-01-07T01:45:00;98287.34;;;-0.95;100.00
65897;BME280;52677;50.898;10.854;2024-01-07T01:47:02;98284.47;;;-0.98;100.00
65897;BME280;52677;50.898;10.854;2024-01-07T01:49:03;98291.91;;;-1.04;100.00
65897;BME280;52677;50.898;10.854;2024-01-07T01:51:03;98291.28;;;-1.01;100.00
65897;BME280;52677;50.898;10.854;2024-01-07T01:53:04;98293.41;;;-0.98;100.00
65897;BME280;52677;50.898;10.854;2024-01-07T01:55:04;98295.91;;;-1.01;100.00
65897;BME280;52677;50.898;10.854;2024-01-07T01:57:05;98303.47;;;-0.98;100.00
65897;BME280;52677;50.898;10.854;2024-01-07T01:59:05;98309.81;;;-1.03;100.00
65897;BME280;52677;50.898;10.854;2024-01-07T02:01:06;98304.19;;;-1.06;100.00
65897;BME280;52677;50.898;10.854;2024-01-07T02:03:06;98302.97;;;-1.00;100.00
65897;BME280;52677;50.898;10.854;2024-01-07T02:05:07;98307.72;;;-1.06;100.00
65897;BME280;52677;50.898;10.854;2024-01-07T02:07:07;98300.88;;;-1.03;100.00
65897;BME280;52677;50.898;10.854;2024-01-07T02:09:07;98308.38;;;-1.00;100.00
65897;BME280;52677;50.898;10.854;2024-01-07T02:11:21;98301.88;;;-0.99;100.00
65897;BME280;52677;50.898;10.854;2024-01-07T02:13:21;98307.91;;;-1.02;100.00
65897;BME280;52677;50.898;10.854;2024-01-07T02:15:21;98317.16;;;-1.03;100.00
65897;BME280;52677;50.898;10.854;2024-01-07T02:17:22;98315.72;;;-1.01;100.00
65897;BME280;52677;50.898;10.854;2024-01-07T02:19:22;98319.06;;;-1.04;100.00
65897;BME280;52677;50.898;10.854;2024-01-07T02:21:22;98323.59;;;-0.99;100.00
65897;BME280;52677;50.898;10.854;2024-01-07T02:23:23;98314.63;;;-1.00;100.00
65897;BME280;52677;50.898;10.854;2024-01-07T02:25:23;98320.88;;;-0.99;100.00
65897;BME280;52677;50.898;10.854;2024-01-07T02:27:24;98318.44;;;-1.01;100.00
65897;BME280;52677;50.898;10.854;2024-01-07T02:29:24;98320.75;;;-0.94;100.00
65897;BME280;52677;50.898;10.854;2024-01-07T02:31:24;98322.50;;;-0.98;100.00
65897;BME280;52677;50.898;10.854;2024-01-07T02:33:25;98332.56;;;-0.99;100.00
65897;BME280;52677;50.898;10.854;2024-01-07T02:35:25;98328.34;;;-1.05;100.00
65897;BME280;52677;50.898;10.854;2024-01-07T02:37:25;98339.59;;;-1.11;100.00
65897;BME280;52677;50.898;10.854;2024-01-07T02:39:26;98334.97;;;-1.11;100.00
65897;BME280;52677;50.898;10.854;2024-01-07T02:41:26;98343.91;;;-1.10;100.00
65897;BME280;52677;50.898;10.854;2024-01-07T02:43:26;98336.31;;;-1.22;100.00
65897;BME280;52677;50.898;10.854;2024-01-07T02:45:27;98342.06;;;-1.24;100.00
65897;BME280;52677;50.898;10.854;2024-01-07T02:47:27;98349.56;;;-1.21;100.00
65897;BME280;52677;50.898;10.854;2024-01-07T02:49:28;98337.44;;;-1.23;100.00
65897;BME280;52677;50.898;10.854;2024-01-07T02:51:28;98338.50;;;-1.24;100.00
65897;BME280;52677;50.898;10.854;2024-01-07T02:53:28;98348.28;;;-1.23;100.00
65897;BME280;52677;50.898;10.854;2024-01-07T02:55:29;98335.00;;;-1.25;100.00
65897;BME280;52677;50.898;10.854;2024-01-07T02:57:29;98344.56;;;-1.27;100.00
65897;BME280;52677;50.898;10.854;2024-01-07T02:59:29;98346.66;;;-1.24;100.00
65897;BME280;52677;50.898;10.854;2024-01-07T03:01:29;98347.47;;;-1.24;100.00
65897;BME280;52677;50.898;10.854;2024-01-07T03:03:30;98352.50;;;-1.31;100.00
65897;BME280;52677;50.898;10.854;2024-01-07T03:05:30;98327.97;;;-1.26;100.00
65897;BME280;52677;50.898;10.854;2024-01-07T03:07:32;98343.44;;;-1.26;100.00
65897;BME280;52677;50.898;10.854;2024-01-07T03:09:32;98351.91;;;-1.28;100.00
65897;BME280;52677;50.898;10.854;2024-01-07T03:11:33;98349.09;;;-1.23;100.00
65897;BME280;52677;50.898;10.854;2024-01-07T03:13:34;98349.50;;;-1.29;100.00
65897;BME280;52677;50.898;10.854;2024-01-07T03:15:34;98344.47;;;-1.36;100.00
65897;BME280;52677;50.898;10.854;2024-01-07T03:17:34;98353.09;;;-1.34;100.00
65897;BME280;52677;50.898;10.854;2024-01-07T03:19:37;98350.00;;;-1.41;100.00
65897;BME280;52677;50.898;10.854;2024-01-07T03:21:37;98345.09;;;-1.39;100.00
65897;BME280;52677;50.898;10.854;2024-01-07T03:23:38;98352.13;;;-1.38;100.00
65897;BME280;52677;50.898;10.854;2024-01-07T03:25:38;98361.56;;;-1.35;100.00
65897;BME280;52677;50.898;10.854;2024-01-07T03:27:38;98365.56;;;-1.33;100.00
65897;BME280;52677;50.898;10.854;2024-01-07T03:29:39;98362.03;;;-1.33;100.00
65897;BME280;52677;50.898;10.854;2024-01-07T03:31:39;98368.28;;;-1.33;100.00
65897;BME280;52677;50.898;10.854;2024-01-07T03:33:41;98368.09;;;-1.36;100.00
65897;BME280;52677;50.898;10.854;2024-01-07T03:35:42;98363.88;;;-1.43;100.00
65897;BME280;52677;50.898;10.854;2024-01-07T03:37:42;98360.03;;;-1.42;100.00
65897;BME280;52677;50.898;10.854;2024-01-07T03:39:44;98370.78;;;-1.50;100.00
65897;BME280;52677;50.898;10.854;2024-01-07T03:41:44;98359.84;;;-1.45;100.00
65897;BME280;52677;50.898;10.854;2024-01-07T03:43:46;98360.97;;;-1.46;100.00
65897;BME280;52677;50.898;10.854;2024-01-07T03:45:46;98362.16;;;-1.52;100.00
65897;BME280;52677;50.898;10.854;2024-01-07T03:47:49;98357.84;;;-1.53;100.00
65897;BME280;52677;50.898;10.854;2024-01-07T03:49:49;98362.97;;;-1.52;100.00
65897;BME280;52677;50.898;10.854;2024-01-07T03:51:50;98363.88;;;-1.56;100.00
65897;BME280;52677;50.898;10.854;2024-01-07T03:53:50;98355.94;;;-1.53;100.00
65897;BME280;52677;50.898;10.854;2024-01-07T03:55:50;98367.69;;;-1.57;100.00
65897;BME280;52677;50.898;10.854;2024-01-07T03:57:51;98370.69;;;-1.59;100.00
65897;BME280;52677;50.898;10.854;2024-01-07T03:59:51;98372.03;;;-1.56;100.00
65897;BME280;52677;50.898;10.854;2024-01-07T04:01:54;98379.53;;;-1.67;100.00
65897;BME280;52677;50.898;10.854;2024-01-07T04:03:54;98373.13;;;-1.71;100.00
65897;BME280;52677;50.898;10.854;2024-01-07T04:05:55;98387.97;;;-1.68;100.00
65897;BME280;52677;50.898;10.854;2024-01-07T04:07:56;98380.66;;;-1.82;100.00
65897;BME280;52677;50.898;10.854;2024-01-07T04:09:56;98383.94;;;-1.85;100.00
65897;BME280;52677;50.898;10.854;2024-01-07T04:11:56;98391.78;;;-1.83;100.00
65897;BME280;52677;50.898;10.854;2024-01-07T04:13:57;98387.06;;;-1.78;100.00
65897;BME280;52677;50.898;10.854;2024-01-07T04:15:57;98388.19;;;-1.79;100.00
65897;BME280;52677;50.898;10.854;2024-01-07T04:18:01;98390.47;;;-1.86;100.00
65897;BME280;52677;50.898;10.854;2024-01-07T04:20:01;98382.63;;;-1.87;100.00
65897;BME280;52677;50.898;10.854;2024-01-07T04:22:02;98391.28;;;-1.85;100.00
65897;BME280;52677;50.898;10.854;2024-01-07T04:24:02;98398.31;;;-1.84;100.00
65897;BME280;52677;50.898;10.854;2024-01-07T04:26:02;98396.69;;;-1.85;100.00
65897;BME280;52677;50.898;10.854;2024-01-07T04:28:03;98401.31;;;-1.86;100.00
65897;BME280;52677;50.898;10.854;2024-01-07T04:30:05;98400.59;;;-1.91;100.00
65897;BME280;52677;50.898;10.854;2024-01-07T04:32:05;98405.44;;;-1.88;100.00
65897;BME280;52677;50.898;10.854;2024-01-07T04:34:05;98406.00;;;-1.91;100.00
65897;BME280;52677;50.898;10.854;2024-01-07T04:36:06;98400.50;;;-1.86;100.00
65897;BME280;52677;50.898;10.854;2024-01-07T04:38:06;98409.63;;;-1.96;100.00
65897;BME280;52677;50.898;10.854;2024-01-07T04:40:09;98416.16;;;-1.97;100.00
65897;BME280;52677;50.898;10.854;2024-01-07T04:42:09;98410.75;;;-1.97;100.00
65897;BME280;52677;50.898;10.854;2024-01-07T04:44:09;98419.19;;;-1.99;100.00
65897;BME280;52677;50.898;10.854;2024-01-07T04:46:10;98423.06;;;-2.05;100.00
65897;BME280;52677;50.898;10.854;2024-01-07T04:48:11;98429.38;;;-2.09;100.00
65897;BME280;52677;50.898;10.854;2024-01-07T04:50:11;98418.91;;;-2.16;100.00
65897;BME280;52677;50.898;10.854;2024-01-07T04:52:14;98425.34;;;-2.12;100.00
65897;BME280;52677;50.898;10.854;2024-01-07T04:54:14;98429.38;;;-2.09;100.00
65897;BME280;52677;50.898;10.854;2024-01-07T04:56:14;98421.53;;;-2.11;100.00
65897;BME280;52677;50.898;10.854;2024-01-07T04:58:14;98439.22;;;-2.00;100.00
65897;BME280;52677;50.898;10.854;2024-01-07T05:00:15;98428.56;;;-2.10;100.00
65897;BME280;52677;50.898;10.854;2024-01-07T05:02:15;98431.28;;;-2.10;100.00
65897;BME280;52677;50.898;10.854;2024-01-07T05:04:16;98436.50;;;-2.13;100.00
65897;BME280;52677;50.898;10.854;2024-01-07T05:06:16;98441.13;;;-2.14;100.00
65897;BME280;52677;50.898;10.854;2024-01-07T05:08:16;98451.34;;;-2.11;100.00
65897;BME280;52677;50.898;10.854;2024-01-07T05:10:17;98443.03;;;-2.14;100.00
65897;BME280;52677;50.898;10.854;2024-01-07T05:12:17;98452.22;;;-2.15;100.00
65897;BME280;52677;50.898;10.854;2024-01-07T05:14:17;98446.31;;;-2.17;100.00
65897;BME280;52677;50.898;10.854;2024-01-07T05:16:19;98452.22;;;-2.15;100.00
65897;BME280;52677;50.898;10.854;2024-01-07T05:18:23;98460.75;;;-2.22;100.00
65897;BME280;52677;50.898;10.854;2024-01-07T05:20:23;98460.97;;;-2.18;100.00
65897;BME280;52677;50.898;10.854;2024-01-07T05:22:24;98455.84;;;-2.20;100.00
65897;BME280;52677;50.898;10.854;2024-01-07T05:24:24;98459.28;;;-2.14;100.00
65897;BME280;52677;50.898;10.854;2024-01-07T05:26:25;98470.94;;;-2.14;100.00
65897;BME280;52677;50.898;10.854;2024-01-07T05:28:25;98467.94;;;-2.12;100.00
65897;BME280;52677;50.898;10.854;2024-01-07T05:30:26;98460.97;;;-2.18;100.00
65897;BME280;52677;50.898;10.854;2024-01-07T05:32:26;98466.38;;;-2.18;100.00
65897;BME280;52677;50.898;10.854;2024-01-07T05:34:27;98471.59;;;-2.22;100.00
65897;BME280;52677;50.898;10.854;2024-01-07T05:36:27;98482.94;;;-2.20;100.00
65897;BME280;52677;50.898;10.854;2024-01-07T05:38:28;98480.53;;;-2.21;100.00
65897;BME280;52677;50.898;10.854;2024-01-07T05:40:28;98483.56;;;-2.23;100.00
65897;BME280;52677;50.898;10.854;2024-01-07T05:42:28;98483.41;;;-2.32;100.00
65897;BME280;52677;50.898;10.854;2024-01-07T05:44:29;98489.41;;;-2.35;100.00
65897;BME280;52677;50.898;10.854;2024-01-07T05:46:29;98488.94;;;-2.42;100.00
65897;BME280;52677;50.898;10.854;2024-01-07T05:48:29;98491.38;;;-2.40;100.00
65897;BME280;52677;50.898;10.854;2024-01-07T05:50:29;98494.00;;;-2.35;100.00
65897;BME280;52677;50.898;10.854;2024-01-07T05:52:30;98496.50;;;-2.39;100.00
65897;BME280;52677;50.898;10.854;2024-01-07T05:54:30;98504.84;;;-2.35;100.00
65897;BME280;52677;50.898;10.854;2024-01-07T05:56:30;98514.13;;;-2.41;100.00
65897;BME280;52677;50.898;10.854;2024-01-07T05:58:31;98499.78;;;-2.42;100.00
65897;BME280;52677;50.898;10.854;2024-01-07T06:00:31;98509.31;;;-2.44;100.00
65897;BME280;52677;50.898;10.854;2024-01-07T06:02:34;98513.44;;;-2.47;100.00
65897;BME280;52677;50.898;10.854;2024-01-07T06:04:34;98512.69;;;-2.52;100.00
65897;BME280;52677;50.898;10.854;2024-01-07T06:06:35;98515.69;;;-2.54;100.00
65897;BME280;52677;50.898;10.854;2024-01-07T06:08:35;98519.19;;;-2.53;100.00
65897;BME280;52677;50.898;10.854;2024-01-07T06:10:35;98518.59;;;-2.50;100.00
65897;BME280;52677;50.898;10.854;2024-01-07T06:12:36;98527.63;;;-2.55;100.00
65897;BME280;52677;50.898;10.854;2024-01-07T06:14:36;98529.59;;;-2.61;100.00
65897;BME280;52677;50.898;10.854;2024-01-07T06:16:36;98539.66;;;-2.66;100.00
65897;BME280;52677;50.898;10.854;2024-01-07T06:18:37;98538.34;;;-2.69;100.00
65897;BME280;52677;50.898;10.854;2024-01-07T06:20:37;98539.66;;;-2.66;100.00
65897;BME280;52677;50.898;10.854;2024-01-07T06:22:37;98542.66;;;-2.68;100.00
65897;BME280;52677;50.898;10.854;2024-01-07T06:24:37;98540.75;;;-2.67;100.00
65897;BME280;52677;50.898;10.854;2024-01-07T06:26:38;98558.41;;;-2.70;100.00
65897;BME280;52677;50.898;10.854;2024-01-07T06:28:38;98546.81;;;-2.75;100.00
65897;BME280;52677;50.898;10.854;2024-01-07T06:30:38;98561.47;;;-2.76;100.00
65897;BME280;52677;50.898;10.854;2024-01-07T06:32:39;98564.81;;;-2.85;100.00
65897;BME280;52677;50.898;10.854;2024-01-07T06:34:39;98567.22;;;-2.83;100.00
65897;BME280;52677;50.898;10.854;2024-01-07T06:36:40;98573.09;;;-3.00;100.00
65897;BME280;52677;50.898;10.854;2024-01-07T06:38:41;98578.00;;;-3.02;100.00
65897;BME280;52677;50.898;10.854;2024-01-07T06:40:42;98587.38;;;-2.94;100.00
65897;BME280;52677;50.898;10.854;2024-01-07T06:42:42;98578.75;;;-2.96;100.00
65897;BME280;52677;50.898;10.854;2024-01-07T06:44:44;98587.16;;;-2.98;100.00
65897;BME280;52677;50.898;10.854;2024-01-07T06:46:44;98586.34;;;-2.98;100.00
65897;BME280;52677;50.898;10.854;2024-01-07T06:48:44;98604.66;;;-2.90;100.00
65897;BME280;52677;50.898;10.854;2024-01-07T06:50:44;98601.84;;;-3.04;100.00
65897;BME280;52677;50.898;10.854;2024-01-07T06:52:45;98598.19;;;-3.18;100.00
65897;BME280;52677;50.898;10.854;2024-01-07T06:54:45;98609.03;;;-3.23;100.00
65897;BME280;52677;50.898;10.854;2024-01-07T06:56:45;98606.63;;;-3.25;100.00
65897;BME280;52677;50.898;10.854;2024-01-07T06:58:46;98611.94;;;-3.15;100.00
65897;BME280;52677;50.898;10.854;2024-01-07T07:00:46;98610.06;;;-3.14;100.00
65897;BME280;52677;50.898;10.854;2024-01-07T07:02:46;98616.09;;;-3.22;100.00
65897;BME280;52677;50.898;10.854;2024-01-07T07:04:47;98624.22;;;-3.22;100.00
65897;BME280;52677;50.898;10.854;2024-01-07T07:06:48;98629.09;;;-3.24;100.00
65897;BME280;52677;50.898;10.854;2024-01-07T07:08:48;98623.16;;;-3.26;100.00
65897;BME280;52677;50.898;10.854;2024-01-07T07:10:48;98629.34;;;-3.21;100.00
65897;BME280;52677;50.898;10.854;2024-01-07T07:12:48;98633.97;;;-3.26;100.00
65897;BME280;52677;50.898;10.854;2024-01-07T07:14:50;98633.97;;;-3.26;100.00
65897;BME280;52677;50.898;10.854;2024-01-07T07:16:51;98639.34;;;-3.21;100.00
65897;BME280;52677;50.898;10.854;2024-01-07T07:18:51;98641.47;;;-3.18;100.00
65897;BME280;52677;50.898;10.854;2024-01-07T07:20:52;98634.50;;;-3.24;100.00
65897;BME280;52677;50.898;10.854;2024-01-07T07:22:52;98648.78;;;-3.19;100.00
65897;BME280;52677;50.898;10.854;2024-01-07T07:24:53;98646.66;;;-3.22;100.00
65897;BME280;52677;50.898;10.854;2024-01-07T07:26:53;98647.19;;;-3.20;100.00
65897;BME280;52677;50.898;10.854;2024-01-07T07:28:53;98647.75;;;-3.23;100.00
65897;BME280;52677;50.898;10.854;2024-01-07T07:30:53;98653.41;;;-3.19;100.00
65897;BME280;52677;50.898;10.854;2024-01-07T07:32:54;98659.41;;;-3.22;100.00
65897;BME280;52677;50.898;10.854;2024-01-07T07:34:54;98663.72;;;-3.21;100.00
65897;BME280;52677;50.898;10.854;2024-01-07T07:36:54;98668.78;;;-3.15;100.00
65897;BME280;52677;50.898;10.854;2024-01-07T07:38:55;98673.38;;;-3.15;100.00
65897;BME280;52677;50.898;10.854;2024-01-07T07:40:56;98672.84;;;-3.12;100.00
65897;BME280;52677;50.898;10.854;2024-01-07T07:42:56;98671.25;;;-3.18;100.00
65897;BME280;52677;50.898;10.854;2024-01-07T07:44:56;98685.88;;;-3.19;100.00
65897;BME280;52677;50.898;10.854;2024-01-07T07:46:57;98684.31;;;-3.25;100.00
65897;BME280;52677;50.898;10.854;2024-01-07T07:48:57;98682.91;;;-3.23;100.00
65897;BME280;52677;50.898;10.854;2024-01-07T07:50:57;98687.81;;;-3.25;100.00
65897;BME280;52677;50.898;10.854;2024-01-07T07:52:57;98690.78;;;-3.21;100.00
65897;BME280;52677;50.898;10.854;2024-01-07T07:54:58;98694.59;;;-3.27;100.00
65897;BME280;52677;50.898;10.854;2024-01-07T07:56:58;98679.19;;;-3.32;100.00
65897;BME280;52677;50.898;10.854;2024-01-07T07:58:59;98685.72;;;-3.33;100.00
65897;BME280;52677;50.898;10.854;2024-01-07T08:00:59;98695.69;;;-3.28;100.00
65897;BME280;52677;50.898;10.854;2024-01-07T08:02:59;98702.19;;;-3.29;100.00
65897;BME280;52677;50.898;10.854;2024-01-07T08:04:59;98700.84;;;-3.32;100.00
65897;BME280;52677;50.898;10.854;2024-01-07T08:07:00;98697.81;;;-3.25;100.00
65897;BME280;52677;50.898;10.854;2024-01-07T08:09:00;98699.25;;;-3.33;100.00
65897;BME280;52677;50.898;10.854;2024-01-07T08:11:01;98710.06;;;-3.33;100.00
65897;BME280;52677;50.898;10.854;2024-01-07T08:13:01;98708.97;;;-3.32;100.00
65897;BME280;52677;50.898;10.854;2024-01-07T08:15:01;98710.06;;;-3.33;100.00
65897;BME280;52677;50.898;10.854;2024-01-07T08:17:02;98717.88;;;-3.31;100.00
65897;BME280;52677;50.898;10.854;2024-01-07T08:19:04;98714.63;;;-3.28;100.00
65897;BME280;52677;50.898;10.854;2024-01-07T08:21:05;98724.88;;;-3.25;100.00
65897;BME280;52677;50.898;10.854;2024-01-07T08:23:05;98719.47;;;-3.25;100.00
65897;BME280;52677;50.898;10.854;2024-01-07T08:25:06;98724.38;;;-3.27;100.00
65897;BME280;52677;50.898;10.854;2024-01-07T08:27:06;98726.72;;;-3.16;100.00
65897;BME280;52677;50.898;10.854;2024-01-07T08:29:07;98720.00;;;-3.23;100.00
65897;BME280;52677;50.898;10.854;2024-01-07T08:31:07;98726.22;;;-3.23;100.00
65897;BME280;52677;50.898;10.854;2024-01-07T08:33:07;98738.09;;;-3.19;100.00
65897;BME280;52677;50.898;10.854;2024-01-07T08:35:08;98730.00;;;-3.24;100.00
65897;BME280;52677;50.898;10.854;2024-01-07T08:37:09;98729.47;;;-3.21;100.00
65897;BME280;52677;50.898;10.854;2024-01-07T08:39:09;98738.41;;;-3.25;100.00
65897;BME280;52677;50.898;10.854;2024-01-07T08:41:11;98736.22;;;-3.18;100.00
65897;BME280;52677;50.898;10.854;2024-01-07T08:43:11;98734.63;;;-3.24;100.00
65897;BME280;52677;50.898;10.854;2024-01-07T08:45:11;98740.09;;;-3.29;100.00
65897;BME280;52677;50.898;10.854;2024-01-07T08:47:12;98752.00;;;-3.30;100.00
65897;BME280;52677;50.898;10.854;2024-01-07T08:49:13;98748.72;;;-3.27;100.00
65897;BME280;52677;50.898;10.854;2024-01-07T08:51:13;98750.09;;;-3.30;100.00
65897;BME280;52677;50.898;10.854;2024-01-07T08:53:14;98754.41;;;-3.29;100.00
65897;BME280;52677;50.898;10.854;2024-01-07T08:55:14;98746.38;;;-3.39;100.00
65897;BME280;52677;50.898;10.854;2024-01-07T08:57:15;98750.94;;;-3.40;100.00
65897;BME280;52677;50.898;10.854;2024-01-07T08:59:16;98762.63;;;-3.44;100.00
65897;BME280;52677;50.898;10.854;2024-01-07T09:01:16;98756.47;;;-3.55;100.00
65897;BME280;52677;50.898;10.854;2024-01-07T09:03:16;98761.38;;;-3.62;100.00
65897;BME280;52677;50.898;10.854;2024-01-07T09:05:18;98755.97;;;-3.62;100.00
65897;BME280;52677;50.898;10.854;2024-01-07T09:07:18;98757.00;;;-3.58;100.00
65897;BME280;52677;50.898;10.854;2024-01-07T09:09:19;98753.78;;;-3.60;100.00
65897;BME280;52677;50.898;10.854;2024-01-07T09:11:19;98774.91;;;-3.62;100.00
65897;BME280;52677;50.898;10.854;2024-01-07T09:13:20;98774.91;;;-3.62;100.00
65897;BME280;52677;50.898;10.854;2024-01-07T09:15:20;98778.69;;;-3.63;100.00
65897;BME280;52677;50.898;10.854;2024-01-07T09:17:20;98780.91;;;-3.75;100.00
65897;BME280;52677;50.898;10.854;2024-01-07T09:19:21;98787.69;;;-3.78;100.00
65897;BME280;52677;50.898;10.854;2024-01-07T09:21:21;98797.94;;;-3.75;100.00
65897;BME280;52677;50.898;10.854;2024-01-07T09:23:23;98794.19;;;-3.84;100.00
65897;BME280;52677;50.898;10.854;2024-01-07T09:25:23;98803.09;;;-3.83;100.00
65897;BME280;52677;50.898;10.854;2024-01-07T09:27:24;98794.75;;;-3.92;100.00
65897;BME280;52677;50.898;10.854;2024-01-07T09:29:24;98801.78;;;-3.91;100.00
65897;BME280;52677;50.898;10.854;2024-01-07T09:31:24;98799.59;;;-3.89;100.00
65897;BME280;52677;50.898;10.854;2024-01-07T09:33:24;98804.19;;;-3.89;100.00
65897;BME280;52677;50.898;10.854;2024-01-07T09:35:25;98805.00;;;-3.84;100.00
65897;BME280;52677;50.898;10.854;2024-01-07T09:37:25;98805.56;;;-3.92;100.00
65897;BME280;52677;50.898;10.854;2024-01-07T09:39:26;98811.81;;;-3.97;100.00
65897;BME280;52677;50.898;10.854;2024-01-07T09:41:26;98815.84;;;-3.94;100.00
65897;BME280;52677;50.898;10.854;2024-01-07T09:43:26;98811.81;;;-3.97;100.00
65897;BME280;52677;50.898;10.854;2024-01-07T09:45:28;98822.06;;;-3.93;100.00
65897;BME280;52677;50.898;10.854;2024-01-07T09:47:30;98813.44;;;-3.96;100.00
65897;BME280;52677;50.898;10.854;2024-01-07T09:49:30;98815.34;;;-4.01;100.00
65897;BME280;52677;50.898;10.854;2024-01-07T09:51:34;98826.38;;;-3.98;100.00
65897;BME280;52677;50.898;10.854;2024-01-07T09:53:38;98827.50;;;-4.04;100.00
65897;BME280;52677;50.898;10.854;2024-01-07T09:56:10;98835.34;;;-3.97;100.00
65897;BME280;52677;50.898;10.854;2024-01-07T09:58:12;98832.34;;;-4.01;100.00
65897;BME280;52677;50.898;10.854;2024-01-07T10:00:12;98829.41;;;-4.09;100.00
65897;BME280;52677;50.898;10.854;2024-01-07T10:02:15;98828.88;;;-4.11;100.00
65897;BME280;52677;50.898;10.854;2024-01-07T10:04:17;98837.22;;;-4.08;100.00
65897;BME280;52677;50.898;10.854;2024-01-07T10:06:20;98836.16;;;-4.12;100.00
65897;BME280;52677;50.898;10.854;2024-01-07T10:08:21;98831.56;;;-4.11;100.00
65897;BME280;52677;50.898;10.854;2024-01-07T10:10:21;98839.16;;;-4.18;100.00
65897;BME280;52677;50.898;10.854;2024-01-07T10:12:24;98840.25;;;-4.19;100.00
65897;BME280;52677;50.898;10.854;2024-01-07T10:14:25;98850.50;;;-4.32;100.00
65897;BME280;52677;50.898;10.854;2024-01-07T10:16:26;98839.47;;;-4.30;100.00
65897;BME280;52677;50.898;10.854;2024-01-07T10:18:26;98841.06;;;-4.29;100.00
65897;BME280;52677;50.898;10.854;2024-01-07T10:20:27;98844.84;;;-4.30;100.00
65897;BME280;52677;50.898;10.854;2024-01-07T10:22:28;98849.41;;;-4.31;100.00